createdAt,value
2023-05-25T00:01:31.382Z,101732.00
2023-05-25T00:04:05.764Z,101730.00
2023-05-25T00:06:43.354Z,101729.00
2023-05-25T00:09:17.202Z,101722.00
2023-05-25T00:11:50.320Z,101717.00
2023-05-25T00:14:27.406Z,101715.00
2023-05-25T00:17:00.464Z,101710.00
2023-05-25T00:19:34.355Z,101715.00
2023-05-25T00:22:07.356Z,101710.00
2023-05-25T00:24:40.338Z,101705.00
2023-05-25T00:27:13.338Z,101703.00
2023-05-25T00:29:46.450Z,101711.00
2023-05-25T00:32:19.493Z,101705.00
2023-05-25T00:34:52.526Z,101710.00
2023-05-25T00:37:25.502Z,101709.00
2023-05-25T00:39:58.458Z,101702.00
2023-05-25T00:42:31.315Z,101703.00
2023-05-25T00:45:04.294Z,101692.00
2023-05-25T00:47:37.974Z,101697.00
2023-05-25T00:50:12.470Z,101699.00
2023-05-25T00:52:45.467Z,101697.00
2023-05-25T00:55:20.896Z,101697.00
2023-05-25T00:57:55.239Z,101691.00
2023-05-25T01:00:28.693Z,101690.00
2023-05-25T01:03:02.508Z,101688.00
2023-05-25T01:05:37.527Z,101690.00
2023-05-25T01:08:12.009Z,101679.00
2023-05-25T01:10:46.595Z,101683.00
2023-05-25T01:13:20.479Z,101672.00
2023-05-25T01:15:55.465Z,101673.00
2023-05-25T01:18:28.767Z,101675.00
2023-05-25T01:21:07.283Z,101673.00
2023-05-25T01:23:41.378Z,101671.00
2023-05-25T01:29:08.375Z,101674.00
2023-05-25T01:31:42.336Z,101674.00
2023-05-25T01:34:16.997Z,101674.00
2023-05-25T01:36:50.059Z,101673.00
2023-05-25T01:39:24.738Z,101677.00
2023-05-25T01:41:57.939Z,101673.00
2023-05-25T01:44:31.682Z,101674.00
2023-05-25T01:47:09.436Z,101674.00
2023-05-25T01:50:05.000Z,101667.00
2023-05-25T01:52:46.051Z,101676.00
2023-05-25T01:55:20.756Z,101673.00
2023-05-25T01:57:55.810Z,101673.00
2023-05-25T02:00:31.739Z,101670.00
2023-05-25T02:03:05.082Z,101666.00
2023-05-25T02:05:38.067Z,101668.00
2023-05-25T02:08:11.044Z,101663.00
2023-05-25T02:10:45.106Z,101665.00
2023-05-25T02:13:18.117Z,101669.00
2023-05-25T02:15:55.052Z,101658.00
2023-05-25T02:18:28.286Z,101667.00
2023-05-25T02:21:01.219Z,101661.00
2023-05-25T02:23:34.187Z,101661.00
2023-05-25T02:26:07.206Z,101662.00
2023-05-25T02:28:40.035Z,101660.00
2023-05-25T02:31:12.720Z,101668.00
2023-05-25T02:33:45.542Z,101657.00
2023-05-25T02:36:18.515Z,101657.00
2023-05-25T02:38:52.767Z,101659.00
2023-05-25T02:41:26.149Z,101645.00
2023-05-25T02:43:59.143Z,101654.00
2023-05-25T02:46:32.162Z,101652.00
2023-05-25T02:49:09.529Z,101657.00
2023-05-25T02:51:42.363Z,101649.00
2023-05-25T02:54:15.458Z,101645.00
2023-05-25T02:56:48.435Z,101651.00
2023-05-25T02:59:21.576Z,101654.00
2023-05-25T03:01:54.334Z,101648.00
2023-05-25T03:04:27.305Z,101636.00
2023-05-25T03:07:00.119Z,101637.00
2023-05-25T03:09:32.975Z,101640.00
2023-05-25T03:12:07.005Z,101652.00
2023-05-25T03:14:40.156Z,101643.00
2023-05-25T03:17:13.256Z,101657.00
2023-05-25T03:19:46.321Z,101649.00
2023-05-25T03:22:21.471Z,101636.00
2023-05-25T03:24:54.506Z,101641.00
2023-05-25T03:27:27.494Z,101638.00
2023-05-25T03:30:00.391Z,101643.00
2023-05-25T03:32:34.320Z,101645.00
2023-05-25T03:35:08.652Z,101643.00
2023-05-25T03:37:41.561Z,101644.00
2023-05-25T03:40:15.053Z,101650.00
2023-05-25T03:42:48.473Z,101642.00
2023-05-25T03:45:21.531Z,101648.00
2023-05-25T03:47:54.509Z,101650.00
2023-05-25T03:50:27.425Z,101653.00
2023-05-25T03:53:00.419Z,101646.00
2023-05-25T03:55:34.248Z,101655.00
2023-05-25T03:58:07.254Z,101641.00
2023-05-25T04:00:40.189Z,101642.00
2023-05-25T04:03:15.940Z,101645.00
2023-05-25T04:05:49.101Z,101637.00
2023-05-25T04:08:26.459Z,101650.00
2023-05-25T04:10:59.519Z,101645.00
2023-05-25T04:13:32.479Z,101648.00
2023-05-25T04:16:05.470Z,101643.00
2023-05-25T04:18:38.758Z,101649.00
2023-05-25T04:21:11.790Z,101650.00
2023-05-25T04:23:45.029Z,101647.00
2023-05-25T04:26:18.441Z,101655.00
2023-05-25T04:28:51.960Z,101654.00
2023-05-25T04:31:26.148Z,101663.00
2023-05-25T04:33:58.981Z,101659.00
2023-05-25T04:36:33.110Z,101657.00
2023-05-25T04:39:06.045Z,101656.00
2023-05-25T04:41:39.637Z,101662.00
2023-05-25T04:44:12.539Z,101663.00
2023-05-25T04:46:50.906Z,101673.00
2023-05-25T04:49:24.291Z,101673.00
2023-05-25T04:51:57.448Z,101670.00
2023-05-25T04:54:30.570Z,101672.00
2023-05-25T04:57:03.632Z,101676.00
2023-05-25T04:59:36.776Z,101681.00
2023-05-25T05:02:10.501Z,101679.00
2023-05-25T05:04:43.730Z,101677.00
2023-05-25T05:07:16.466Z,101675.00
2023-05-25T05:09:49.445Z,101673.00
2023-05-25T05:12:22.214Z,101681.00
2023-05-25T05:14:56.176Z,101698.00
2023-05-25T05:17:30.435Z,101690.00
2023-05-25T05:20:03.627Z,101690.00
2023-05-25T05:22:37.077Z,101693.00
2023-05-25T05:25:10.533Z,101694.00
2023-05-25T05:27:43.680Z,101695.00
2023-05-25T05:30:16.796Z,101702.00
2023-05-25T05:32:49.774Z,101695.00
2023-05-25T05:35:22.766Z,101702.00
2023-05-25T05:37:55.550Z,101699.00
2023-05-25T05:40:28.821Z,101706.00
2023-05-25T05:43:05.903Z,101695.00
2023-05-25T05:45:38.906Z,101702.00
2023-05-25T05:48:14.787Z,101708.00
2023-05-25T05:50:47.920Z,101709.00
2023-05-25T05:53:20.751Z,101715.00
2023-05-25T05:55:56.263Z,101711.00
2023-05-25T05:58:30.383Z,101711.00
2023-05-25T06:01:03.831Z,101725.00
2023-05-25T06:03:36.953Z,101721.00
2023-05-25T06:06:10.005Z,101723.00
2023-05-25T06:08:46.323Z,101736.00
2023-05-25T06:11:19.507Z,101734.00
2023-05-25T06:13:52.960Z,101729.00
2023-05-25T06:16:25.927Z,101740.00
2023-05-25T06:18:58.905Z,101741.00
2023-05-25T06:21:31.733Z,101750.00
2023-05-25T06:24:04.791Z,101740.00
2023-05-25T06:26:37.837Z,101740.00
2023-05-25T06:29:10.849Z,101745.00
2023-05-25T06:31:43.570Z,101747.00
2023-05-25T06:34:16.467Z,101749.00
2023-05-25T06:36:49.757Z,101758.00
2023-05-25T06:39:22.622Z,101765.00
2023-05-25T06:41:56.256Z,101762.00
2023-05-25T06:44:29.259Z,101759.00
2023-05-25T06:47:02.332Z,101765.00
2023-05-25T06:49:35.426Z,101767.00
2023-05-25T06:52:08.487Z,101772.00
2023-05-25T06:54:41.486Z,101780.00
2023-05-25T06:57:16.873Z,101780.00
2023-05-25T06:59:48.448Z,101783.00
2023-05-25T07:02:22.497Z,101790.00
2023-05-25T07:04:55.248Z,101792.00
2023-05-25T07:07:28.087Z,101791.00
2023-05-25T07:10:01.022Z,101786.00
2023-05-25T07:12:33.882Z,101797.00
2023-05-25T07:15:07.061Z,101802.00
2023-05-25T07:17:40.630Z,101798.00
2023-05-25T07:20:15.378Z,101799.00
2023-05-25T07:22:49.428Z,101802.00
2023-05-25T07:25:22.647Z,101798.00
2023-05-25T07:27:56.926Z,101802.00
2023-05-25T07:30:31.464Z,101801.00
2023-05-25T07:33:04.477Z,101814.00
2023-05-25T07:35:37.802Z,101808.00
2023-05-25T07:38:10.671Z,101807.00
2023-05-25T07:40:43.585Z,101807.00
2023-05-25T07:43:16.440Z,101808.00
2023-05-25T07:45:49.547Z,101810.00
2023-05-25T07:48:26.655Z,101812.00
2023-05-25T07:50:59.468Z,101811.00
2023-05-25T07:53:32.521Z,101810.00
2023-05-25T07:56:05.442Z,101818.00
2023-05-25T07:58:42.707Z,101823.00
2023-05-25T08:01:20.592Z,101819.00
2023-05-25T08:03:59.897Z,101828.00
2023-05-25T08:06:34.305Z,101833.00
2023-05-25T08:09:09.302Z,101832.00
2023-05-25T08:11:42.211Z,101823.00
2023-05-25T08:14:15.211Z,101825.00
2023-05-25T08:16:48.665Z,101832.00
2023-05-25T08:19:22.177Z,101832.00
2023-05-25T08:21:55.423Z,101824.00
2023-05-25T08:24:28.292Z,101823.00
2023-05-25T08:27:01.245Z,101825.00
2023-05-25T08:29:34.285Z,101823.00
2023-05-25T08:32:07.254Z,101833.00
2023-05-25T08:34:40.200Z,101827.00
2023-05-25T08:37:13.342Z,101823.00
2023-05-25T08:39:46.392Z,101827.00
2023-05-25T08:42:19.691Z,101831.00
2023-05-25T08:44:52.783Z,101830.00
2023-05-25T08:47:26.569Z,101832.00
2023-05-25T08:50:00.525Z,101834.00
2023-05-25T08:52:35.361Z,101834.00
2023-05-25T08:55:09.928Z,101840.00
2023-05-25T08:57:56.732Z,101840.00
2023-05-25T09:00:34.560Z,101844.00
2023-05-25T09:03:12.877Z,101847.00
2023-05-25T09:05:45.889Z,101851.00
2023-05-25T09:08:19.197Z,101858.00
2023-05-25T09:10:52.344Z,101860.00
2023-05-25T09:13:25.374Z,101858.00
2023-05-25T09:15:58.732Z,101858.00
2023-05-25T09:18:32.489Z,101858.00
2023-05-25T09:21:06.018Z,101863.00
2023-05-25T09:23:40.715Z,101861.00
2023-05-25T09:26:13.990Z,101859.00
2023-05-25T09:28:53.312Z,101862.00
2023-05-25T09:31:27.767Z,101863.00
2023-05-25T09:34:04.856Z,101872.00
2023-05-25T09:36:40.599Z,101872.00
2023-05-25T09:39:16.863Z,101873.00
2023-05-25T09:41:50.129Z,101879.00
2023-05-25T09:44:23.333Z,101879.00
2023-05-25T09:46:56.317Z,101880.00
2023-05-25T09:49:30.555Z,101873.00
2023-05-25T09:52:04.353Z,101874.00
2023-05-25T09:54:37.395Z,101869.00
2023-05-25T09:57:10.712Z,101870.00
2023-05-25T09:59:46.699Z,101872.00
2023-05-25T10:02:21.049Z,101865.00
2023-05-25T10:04:55.374Z,101865.00
2023-05-25T10:07:29.325Z,101862.00
2023-05-25T10:10:04.264Z,101861.00
2023-05-25T10:12:38.574Z,101857.00
2023-05-25T10:15:15.748Z,101870.00
2023-05-25T10:17:55.887Z,101862.00
2023-05-25T10:20:30.928Z,101861.00
2023-05-25T10:23:17.976Z,101863.00
2023-05-25T10:25:52.893Z,101860.00
2023-05-25T10:28:27.702Z,101860.00
2023-05-25T10:31:03.479Z,101857.00
2023-05-25T10:33:37.368Z,101864.00
2023-05-25T10:36:12.241Z,101849.00
2023-05-25T10:38:46.613Z,101857.00
2023-05-25T10:41:19.689Z,101849.00
2023-05-25T10:43:54.770Z,101857.00
2023-05-25T10:46:27.997Z,101846.00
2023-05-25T10:49:02.345Z,101846.00
2023-05-25T10:51:45.689Z,101854.00
2023-05-25T10:54:20.049Z,101856.00
2023-05-25T10:57:14.613Z,101859.00
2023-05-25T10:59:49.019Z,101855.00
2023-05-25T11:02:26.730Z,101858.00
2023-05-25T11:05:33.849Z,101854.00
2023-05-25T11:08:11.770Z,101860.00
2023-05-25T11:10:55.145Z,101850.00
2023-05-25T11:13:41.896Z,101857.00
2023-05-25T11:16:24.024Z,101849.00
2023-05-25T11:19:05.217Z,101850.00
2023-05-25T11:21:47.022Z,101850.00
2023-05-25T11:24:21.383Z,101851.00
2023-05-25T11:27:03.371Z,101846.00
2023-05-25T11:29:37.430Z,101853.00
2023-05-25T11:32:13.111Z,101853.00
2023-05-25T11:34:47.542Z,101852.00
2023-05-25T11:37:24.901Z,101851.00
2023-05-25T11:39:58.772Z,101853.00
2023-05-25T11:42:32.835Z,101846.00
2023-05-25T11:45:07.239Z,101836.00
2023-05-25T11:47:40.197Z,101839.00
2023-05-25T11:50:15.162Z,101844.00
2023-05-25T11:52:48.120Z,101841.00
2023-05-25T11:55:21.001Z,101839.00
2023-05-25T11:58:01.494Z,101841.00
2023-05-25T12:00:34.427Z,101838.00
2023-05-25T12:03:07.624Z,101844.00
2023-05-25T12:05:44.085Z,101850.00
2023-05-25T12:08:16.897Z,101846.00
2023-05-25T12:10:56.022Z,101850.00
2023-05-25T12:13:28.954Z,101846.00
2023-05-25T12:16:02.451Z,101843.00
2023-05-25T12:18:35.345Z,101850.00
2023-05-25T12:21:10.113Z,101848.00
2023-05-25T12:23:43.525Z,101846.00
2023-05-25T12:26:18.040Z,101853.00
2023-05-25T12:29:07.648Z,101858.00
2023-05-25T12:31:44.238Z,101850.00
2023-05-25T12:34:18.474Z,101854.00
2023-05-25T12:36:58.664Z,101851.00
2023-05-25T12:39:37.111Z,101848.00
2023-05-25T12:42:11.471Z,101847.00
2023-05-25T12:44:44.480Z,101848.00
2023-05-25T12:47:25.852Z,101852.00
2023-05-25T12:50:15.363Z,101839.00
2023-05-25T12:52:48.727Z,101844.00
2023-05-25T12:55:31.841Z,101836.00
2023-05-25T12:58:06.545Z,101825.00
2023-05-25T13:00:46.735Z,101829.00
2023-05-25T13:03:21.072Z,101828.00
2023-05-25T13:05:54.147Z,101820.00
2023-05-25T13:08:27.050Z,101816.00
2023-05-25T13:11:00.560Z,101825.00
2023-05-25T13:13:33.728Z,101813.00
2023-05-25T13:16:06.932Z,101824.00
2023-05-25T13:18:40.115Z,101815.00
2023-05-25T13:21:13.019Z,101821.00
2023-05-25T13:23:45.914Z,101816.00
2023-05-25T13:26:19.671Z,101811.00
2023-05-25T13:28:52.827Z,101808.00
2023-05-25T13:31:25.725Z,101798.00
2023-05-25T13:33:58.703Z,101803.00
2023-05-25T13:36:31.660Z,101802.00
2023-05-25T13:39:04.627Z,101798.00
2023-05-25T13:41:37.626Z,101803.00
2023-05-25T13:44:10.336Z,101803.00
2023-05-25T13:46:43.267Z,101800.00
2023-05-25T13:49:17.667Z,101801.00
2023-05-25T13:51:52.662Z,101802.00
2023-05-25T13:54:29.783Z,101799.00
2023-05-25T13:57:02.712Z,101801.00
2023-05-25T13:59:35.614Z,101800.00
2023-05-25T14:02:08.957Z,101798.00
2023-05-25T14:04:42.057Z,101789.00
2023-05-25T14:07:14.967Z,101792.00
2023-05-25T14:09:47.947Z,101785.00
2023-05-25T14:12:21.050Z,101799.00
2023-05-25T14:14:55.184Z,101794.00
2023-05-25T14:17:28.799Z,101794.00
2023-05-25T14:20:01.758Z,101794.00
2023-05-25T14:22:36.177Z,101786.00
2023-05-25T14:25:09.474Z,101801.00
2023-05-25T14:27:42.943Z,101801.00
2023-05-25T14:30:16.390Z,101801.00
2023-05-25T14:32:49.347Z,101796.00
2023-05-25T14:35:22.448Z,101797.00
2023-05-25T14:37:55.319Z,101805.00
2023-05-25T14:40:28.294Z,101800.00
2023-05-25T14:43:01.292Z,101800.00
2023-05-25T14:45:34.164Z,101801.00
2023-05-25T14:48:15.956Z,101799.00
2023-05-25T14:50:42.603Z,101799.00
2023-05-25T14:53:17.822Z,101795.00
2023-05-25T14:55:50.730Z,101793.00
2023-05-25T14:58:23.788Z,101796.00
2023-05-25T15:00:56.434Z,101789.00
2023-05-25T15:03:29.564Z,101789.00
2023-05-25T15:06:02.991Z,101791.00
2023-05-25T15:08:36.011Z,101783.00
2023-05-25T15:11:08.994Z,101788.00
2023-05-25T15:13:42.737Z,101779.00
2023-05-25T15:16:19.713Z,101785.00
2023-05-25T15:18:53.691Z,101783.00
2023-05-25T15:21:27.451Z,101781.00
2023-05-25T15:24:00.657Z,101789.00
2023-05-25T15:26:33.547Z,101786.00
2023-05-25T15:29:07.218Z,101790.00
2023-05-25T15:31:40.200Z,101790.00
2023-05-25T15:34:13.197Z,101797.00
2023-05-25T15:36:46.117Z,101790.00
2023-05-25T15:39:19.168Z,101792.00
2023-05-25T15:41:52.166Z,101787.00
2023-05-25T15:44:24.972Z,101781.00
2023-05-25T15:46:57.654Z,101776.00
2023-05-25T15:49:30.678Z,101780.00
2023-05-25T15:52:03.639Z,101778.00
2023-05-25T15:54:36.540Z,101783.00
2023-05-25T15:57:09.719Z,101779.00
2023-05-25T15:59:42.875Z,101778.00
2023-05-25T16:02:15.801Z,101776.00
2023-05-25T16:04:48.889Z,101777.00
2023-05-25T16:07:21.793Z,101778.00
2023-05-25T16:09:54.489Z,101775.00
2023-05-25T16:12:28.709Z,101776.00
2023-05-25T16:15:01.640Z,101780.00
2023-05-25T16:17:38.758Z,101772.00
2023-05-25T16:20:12.656Z,101771.00
2023-05-25T16:22:45.961Z,101769.00
2023-05-25T16:25:21.310Z,101767.00
2023-05-25T16:27:54.166Z,101766.00
2023-05-25T16:30:27.340Z,101774.00
2023-05-25T16:33:00.219Z,101772.00
2023-05-25T16:35:33.208Z,101773.00
2023-05-25T16:38:06.222Z,101768.00
2023-05-25T16:40:39.402Z,101771.00
2023-05-25T16:43:12.393Z,101766.00
2023-05-25T16:45:45.555Z,101772.00
2023-05-25T16:48:19.456Z,101771.00
2023-05-25T16:50:52.576Z,101772.00
2023-05-25T16:53:25.572Z,101774.00
2023-05-25T16:55:58.547Z,101770.00
2023-05-25T16:58:31.546Z,101776.00
2023-05-25T17:01:04.453Z,101772.00
2023-05-25T17:03:37.249Z,101761.00
2023-05-25T17:06:11.166Z,101774.00
2023-05-25T17:08:44.235Z,101769.00
2023-05-25T17:11:17.147Z,101762.00
2023-05-25T17:13:54.289Z,101767.00
2023-05-25T17:16:27.490Z,101762.00
2023-05-25T17:19:00.468Z,101764.00
2023-05-25T17:21:33.418Z,101762.00
2023-05-25T17:24:06.546Z,101761.00
2023-05-25T17:26:39.578Z,101770.00
2023-05-25T17:29:12.602Z,101772.00
2023-05-25T17:31:48.350Z,101772.00
2023-05-25T17:34:20.045Z,101768.00
2023-05-25T17:36:53.218Z,101772.00
2023-05-25T17:39:26.202Z,101767.00
2023-05-25T17:41:59.170Z,101770.00
2023-05-25T17:44:32.084Z,101770.00
2023-05-25T17:47:04.935Z,101767.00
2023-05-25T17:49:37.699Z,101767.00
2023-05-25T17:52:10.627Z,101770.00
2023-05-25T17:54:43.462Z,101765.00
2023-05-25T17:57:16.378Z,101772.00
2023-05-25T17:59:49.402Z,101780.00
2023-05-25T18:02:22.230Z,101783.00
2023-05-25T18:04:55.216Z,101771.00
2023-05-25T18:07:28.115Z,101779.00
2023-05-25T18:10:01.144Z,101779.00
2023-05-25T18:12:34.297Z,101781.00
2023-05-25T18:15:07.241Z,101787.00
2023-05-25T18:17:40.552Z,101781.00
2023-05-25T18:20:14.132Z,101784.00
2023-05-25T18:22:47.068Z,101779.00
2023-05-25T18:25:20.026Z,101788.00
2023-05-25T18:27:52.996Z,101787.00
2023-05-25T18:30:25.968Z,101790.00
2023-05-25T18:32:59.708Z,101800.00
2023-05-25T18:35:32.888Z,101799.00
2023-05-25T18:38:05.753Z,101800.00
2023-05-25T18:40:38.784Z,101798.00
2023-05-25T18:43:11.625Z,101805.00
2023-05-25T18:45:44.489Z,101798.00
2023-05-25T18:48:18.821Z,101799.00
2023-05-25T18:50:51.588Z,101808.00
2023-05-25T18:53:24.521Z,101811.00
2023-05-25T18:55:57.509Z,101822.00
2023-05-25T18:58:30.393Z,101816.00
2023-05-25T19:01:04.988Z,101818.00
2023-05-25T19:03:38.220Z,101817.00
2023-05-25T19:06:14.022Z,101817.00
2023-05-25T19:08:46.693Z,101817.00
2023-05-25T19:11:20.853Z,101813.00
2023-05-25T19:13:53.722Z,101820.00
2023-05-25T19:16:26.697Z,101807.00
2023-05-25T19:18:59.726Z,101808.00
2023-05-25T19:21:32.733Z,101806.00
2023-05-25T19:24:05.659Z,101809.00
2023-05-25T19:26:39.776Z,101818.00
2023-05-25T19:29:12.952Z,101818.00
2023-05-25T19:31:46.038Z,101816.00
2023-05-25T19:34:18.872Z,101826.00
2023-05-25T19:36:56.616Z,101814.00
2023-05-25T19:39:25.698Z,101829.00
2023-05-25T19:41:59.295Z,101825.00
2023-05-25T19:44:32.217Z,101828.00
2023-05-25T19:47:05.350Z,101824.00
2023-05-25T19:49:38.634Z,101830.00
2023-05-25T19:52:11.706Z,101829.00
2023-05-25T19:54:44.725Z,101834.00
2023-05-25T19:57:17.650Z,101836.00
2023-05-25T19:59:51.889Z,101836.00
2023-05-25T20:02:24.736Z,101843.00
2023-05-25T20:04:57.640Z,101833.00
2023-05-25T20:07:30.335Z,101836.00
2023-05-25T20:10:03.300Z,101836.00
2023-05-25T20:12:36.838Z,101835.00
2023-05-25T20:15:09.787Z,101847.00
2023-05-25T20:17:42.563Z,101853.00
2023-05-25T20:20:15.697Z,101848.00
2023-05-25T20:22:48.537Z,101843.00
2023-05-25T20:25:21.351Z,101849.00
2023-05-25T20:27:54.817Z,101855.00
2023-05-25T20:30:28.226Z,101852.00
2023-05-25T20:33:01.210Z,101862.00
2023-05-25T20:35:34.907Z,101858.00
2023-05-25T20:38:07.650Z,101858.00
2023-05-25T20:40:40.533Z,101862.00
2023-05-25T20:43:13.550Z,101861.00
2023-05-25T20:45:46.970Z,101858.00
2023-05-25T20:48:19.985Z,101855.00
2023-05-25T20:50:52.876Z,101871.00
2023-05-25T20:53:25.796Z,101871.00
2023-05-25T20:55:59.861Z,101879.00
2023-05-25T20:58:32.800Z,101873.00
2023-05-25T21:01:05.682Z,101886.00
2023-05-25T21:03:38.794Z,101884.00
2023-05-25T21:06:11.740Z,101882.00
2023-05-25T21:08:44.258Z,101879.00
2023-05-25T21:11:17.487Z,101884.00
2023-05-25T21:13:51.239Z,101878.00
2023-05-25T21:16:24.612Z,101882.00
2023-05-25T21:18:57.392Z,101876.00
2023-05-25T21:21:30.771Z,101876.00
2023-05-25T21:24:07.484Z,101885.00
2023-05-25T21:26:41.861Z,101886.00
2023-05-25T21:29:15.316Z,101879.00
2023-05-25T21:31:48.293Z,101889.00
2023-05-25T21:34:21.485Z,101884.00
2023-05-25T21:36:54.644Z,101892.00
2023-05-25T21:39:27.611Z,101891.00
2023-05-25T21:42:00.615Z,101889.00
2023-05-25T21:44:36.308Z,101888.00
2023-05-25T21:47:09.365Z,101875.00
2023-05-25T21:49:42.108Z,101890.00
2023-05-25T21:52:15.182Z,101882.00
2023-05-25T21:54:48.200Z,101878.00
2023-05-25T21:57:21.237Z,101889.00
2023-05-25T21:59:54.149Z,101879.00
2023-05-25T22:02:27.177Z,101882.00
2023-05-25T22:05:00.061Z,101885.00
2023-05-25T22:07:32.828Z,101888.00
2023-05-25T22:10:05.757Z,101890.00
2023-05-25T22:12:38.694Z,101888.00
2023-05-25T22:15:12.313Z,101887.00
2023-05-25T22:17:45.173Z,101893.00
2023-05-25T22:20:18.895Z,101897.00
2023-05-25T22:22:51.764Z,101894.00
2023-05-25T22:25:24.751Z,101895.00
2023-05-25T22:27:57.818Z,101902.00
2023-05-25T22:30:30.953Z,101897.00
2023-05-25T22:33:43.931Z,101888.00
2023-05-25T22:35:54.213Z,101897.00
2023-05-25T22:38:27.250Z,101888.00
2023-05-25T22:41:00.216Z,101893.00
2023-05-25T22:43:34.047Z,101892.00
2023-05-25T22:46:07.030Z,101883.00
2023-05-25T22:48:42.696Z,101887.00
2023-05-25T22:51:16.757Z,101886.00
2023-05-25T22:53:49.937Z,101890.00
2023-05-25T22:56:23.045Z,101901.00
2023-05-25T22:58:59.225Z,101887.00
2023-05-25T23:01:32.359Z,101885.00
2023-05-25T23:04:05.749Z,101883.00
2023-05-25T23:06:39.028Z,101893.00
2023-05-25T23:09:11.832Z,101889.00
2023-05-25T23:11:44.774Z,101894.00
2023-05-25T23:14:17.614Z,101888.00
2023-05-25T23:16:53.732Z,101892.00
2023-05-25T23:19:27.622Z,101873.00
2023-05-25T23:22:00.788Z,101864.00
2023-05-25T23:24:33.695Z,101875.00
2023-05-25T23:27:07.266Z,101869.00
2023-05-25T23:29:40.137Z,101865.00
2023-05-25T23:32:13.790Z,101873.00
2023-05-25T23:34:46.857Z,101858.00
2023-05-25T23:37:19.694Z,101857.00
2023-05-25T23:39:52.641Z,101852.00
2023-05-25T23:42:25.487Z,101838.00
2023-05-25T23:44:58.130Z,101851.00
2023-05-25T23:47:31.049Z,101841.00
2023-05-25T23:50:04.092Z,101841.00
2023-05-25T23:52:37.299Z,101830.00
2023-05-25T23:55:13.839Z,101843.00
2023-05-25T23:57:46.895Z,101830.00
